createdAt,value
2023-02-22T00:02:14.033Z,92.71
2023-02-22T00:05:00.492Z,93.03
2023-02-22T00:07:47.777Z,93.18
2023-02-22T00:10:38.393Z,93.25
2023-02-22T00:13:25.301Z,93.35
2023-02-22T00:16:21.224Z,93.63
2023-02-22T00:19:08.673Z,93.83
2023-02-22T00:21:55.293Z,94.18
2023-02-22T00:24:41.767Z,94.22
2023-02-22T00:27:28.458Z,94.39
2023-02-22T00:30:21.984Z,94.56
2023-02-22T00:33:08.782Z,94.77
2023-02-22T00:35:55.499Z,94.70
2023-02-22T00:38:42.701Z,94.71
2023-02-22T00:41:29.689Z,94.82
2023-02-22T00:44:16.146Z,94.61
2023-02-22T00:47:04.777Z,94.60
2023-02-22T00:49:51.203Z,94.83
2023-02-22T00:52:38.669Z,95.05
2023-02-22T00:55:28.374Z,95.09
2023-02-22T00:58:14.936Z,95.15
2023-02-22T01:01:02.020Z,95.14
2023-02-22T01:03:48.617Z,95.17
2023-02-22T01:06:35.741Z,95.28
2023-02-22T01:09:22.700Z,95.18
2023-02-22T01:12:09.216Z,95.09
2023-02-22T01:14:59.362Z,95.09
2023-02-22T01:17:46.164Z,95.19
2023-02-22T01:20:33.285Z,95.65
2023-02-22T01:23:19.866Z,95.69
2023-02-22T01:26:06.737Z,95.76
2023-02-22T01:28:53.018Z,95.69
2023-02-22T01:31:39.516Z,95.78
2023-02-22T01:34:26.142Z,95.63
2023-02-22T01:37:12.700Z,95.62
2023-02-22T01:39:59.099Z,95.61
2023-02-22T01:42:47.104Z,95.51
2023-02-22T01:45:33.526Z,95.13
2023-02-22T01:48:37.164Z,94.94
2023-02-22T01:51:29.449Z,94.80
2023-02-22T01:54:18.863Z,94.56
2023-02-22T01:57:12.279Z,94.85
2023-02-22T02:00:11.389Z,94.84
2023-02-22T02:03:07.551Z,94.78
2023-02-22T02:05:58.737Z,94.83
2023-02-22T02:09:01.207Z,94.65
2023-02-22T02:11:49.628Z,94.44
2023-02-22T02:14:40.517Z,93.98
2023-02-22T02:17:27.115Z,93.84
2023-02-22T02:20:22.594Z,93.64
2023-02-22T02:23:47.010Z,93.77
2023-02-22T02:27:11.470Z,93.75
2023-02-22T02:30:18.347Z,93.87
2023-02-22T02:33:26.747Z,93.74
2023-02-22T02:36:26.135Z,93.51
2023-02-22T02:39:19.478Z,93.66
2023-02-22T02:42:11.700Z,93.62
2023-02-22T02:45:10.009Z,93.51
2023-02-22T02:47:59.814Z,93.29
2023-02-22T02:50:49.553Z,93.05
2023-02-22T02:53:42.926Z,92.95
2023-02-22T02:56:31.089Z,92.87
2023-02-22T02:59:43.874Z,93.32
2023-02-22T03:02:51.578Z,93.83
2023-02-22T03:05:47.311Z,94.22
2023-02-22T03:09:01.698Z,94.67
2023-02-22T03:12:19.367Z,94.88
2023-02-22T03:15:06.099Z,95.25
2023-02-22T03:18:17.819Z,95.52
2023-02-22T03:21:22.612Z,95.76
2023-02-22T03:24:23.109Z,95.96
2023-02-22T03:27:21.742Z,95.95
2023-02-22T03:30:12.283Z,96.02
2023-02-22T03:33:08.997Z,96.13
2023-02-22T03:36:08.584Z,95.98
2023-02-22T03:38:58.951Z,95.98
2023-02-22T03:41:49.294Z,96.23
2023-02-22T03:44:40.291Z,96.47
2023-02-22T03:47:38.424Z,96.39
2023-02-22T03:50:35.517Z,96.39
2023-02-22T03:53:23.259Z,96.59
2023-02-22T03:56:15.094Z,96.71
2023-02-22T03:59:08.206Z,96.73
2023-02-22T04:01:55.649Z,96.87
2023-02-22T04:04:42.259Z,96.83
2023-02-22T04:07:29.067Z,96.61
2023-02-22T04:10:17.033Z,96.35
2023-02-22T04:13:04.323Z,95.96
2023-02-22T04:15:51.052Z,95.54
2023-02-22T04:18:37.546Z,95.35
2023-02-22T04:21:24.293Z,95.16
2023-02-22T04:24:11.774Z,95.19
2023-02-22T04:26:57.966Z,95.12
2023-02-22T04:29:44.575Z,95.28
2023-02-22T04:32:31.018Z,95.26
2023-02-22T04:35:17.759Z,95.22
2023-02-22T04:38:05.151Z,95.28
2023-02-22T04:40:52.591Z,95.19
2023-02-22T04:43:39.038Z,95.16
2023-02-22T04:46:25.761Z,94.90
2023-02-22T04:49:12.638Z,94.77
2023-02-22T04:51:58.948Z,94.59
2023-02-22T04:54:45.557Z,94.41
2023-02-22T04:57:32.563Z,94.67
2023-02-22T05:00:21.796Z,94.69
2023-02-22T05:03:08.863Z,94.72
2023-02-22T05:05:56.489Z,94.85
2023-02-22T05:08:42.802Z,94.59
2023-02-22T05:11:29.178Z,94.56
2023-02-22T05:14:15.971Z,94.55
2023-02-22T05:17:03.857Z,94.53
2023-02-22T05:19:50.365Z,94.48
2023-02-22T05:22:36.891Z,94.51
2023-02-22T05:25:59.355Z,94.48
2023-02-22T05:28:44.583Z,94.94
2023-02-22T05:31:29.985Z,94.73
2023-02-22T05:34:15.831Z,94.60
2023-02-22T05:37:02.726Z,94.43
2023-02-22T05:39:47.705Z,94.52
2023-02-22T05:42:33.089Z,94.32
2023-02-22T05:45:21.026Z,94.21
2023-02-22T05:48:06.144Z,94.31
2023-02-22T05:50:51.304Z,94.31
2023-02-22T05:53:36.929Z,94.30
2023-02-22T05:56:24.213Z,94.27
2023-02-22T05:59:09.319Z,94.30
2023-02-22T06:01:54.771Z,94.30
2023-02-22T06:04:40.064Z,94.21
2023-02-22T06:07:25.218Z,94.02
2023-02-22T06:10:13.245Z,93.97
2023-02-22T06:12:59.589Z,93.85
2023-02-22T06:15:45.019Z,93.73
2023-02-22T06:18:30.576Z,93.73
2023-02-22T06:21:16.974Z,93.66
2023-02-22T06:24:03.770Z,93.44
2023-02-22T06:27:01.064Z,93.15
2023-02-22T06:29:46.900Z,92.89
2023-02-22T06:32:32.220Z,92.84
2023-02-22T06:35:18.314Z,92.83
2023-02-22T06:38:03.570Z,92.63
2023-02-22T06:40:48.842Z,92.34
2023-02-22T06:43:34.319Z,92.31
2023-02-22T06:46:20.524Z,92.26
2023-02-22T06:49:05.709Z,91.94
2023-02-22T06:51:51.104Z,91.26
2023-02-22T06:54:38.107Z,90.84
2023-02-22T06:57:23.176Z,91.04
2023-02-22T07:00:08.675Z,90.49
2023-02-22T07:02:54.241Z,89.67
2023-02-22T07:05:39.392Z,89.59
2023-02-22T07:08:24.764Z,89.26
2023-02-22T07:11:10.082Z,89.20
2023-02-22T07:13:55.470Z,88.78
2023-02-22T07:16:42.067Z,88.51
2023-02-22T07:19:27.277Z,87.66
2023-02-22T07:22:12.480Z,87.39
2023-02-22T07:24:57.769Z,86.88
2023-02-22T07:27:43.849Z,86.12
2023-02-22T07:30:33.344Z,85.59
2023-02-22T07:33:18.896Z,85.35
2023-02-22T07:36:05.596Z,84.87
2023-02-22T07:38:50.835Z,84.11
2023-02-22T07:41:36.239Z,83.03
2023-02-22T07:44:21.250Z,82.89
2023-02-22T07:47:07.028Z,82.52
2023-02-22T07:49:52.594Z,80.59
2023-02-22T07:52:37.974Z,79.46
2023-02-22T07:55:28.242Z,79.36
2023-02-22T07:58:14.912Z,79.30
2023-02-22T08:01:03.051Z,78.64
2023-02-22T08:03:48.530Z,77.88
2023-02-22T08:06:33.764Z,77.11
2023-02-22T08:09:18.763Z,77.73
2023-02-22T08:12:04.138Z,76.94
2023-02-22T08:14:49.282Z,75.93
2023-02-22T08:17:34.833Z,76.13
2023-02-22T08:20:20.874Z,76.22
2023-02-22T08:23:07.086Z,75.21
2023-02-22T08:25:53.496Z,74.14
2023-02-22T08:28:38.442Z,74.77
2023-02-22T08:31:23.432Z,73.90
2023-02-22T08:34:09.955Z,72.99
2023-02-22T08:36:55.184Z,71.65
2023-02-22T08:39:40.570Z,70.71
2023-02-22T08:42:25.843Z,70.54
2023-02-22T08:45:12.706Z,70.49
2023-02-22T08:47:58.729Z,69.59
2023-02-22T08:50:44.090Z,68.74
2023-02-22T08:53:29.530Z,68.88
2023-02-22T08:56:15.930Z,68.40
2023-02-22T08:59:01.123Z,68.54
2023-02-22T09:01:46.262Z,69.41
2023-02-22T09:04:31.615Z,69.39
2023-02-22T09:07:16.922Z,68.83
2023-02-22T09:10:02.399Z,68.32
2023-02-22T09:12:47.486Z,68.26
2023-02-22T09:15:35.283Z,67.83
2023-02-22T09:18:20.495Z,68.06
2023-02-22T09:21:05.907Z,68.31
2023-02-22T09:23:53.994Z,67.75
2023-02-22T09:26:38.925Z,67.91
2023-02-22T09:29:25.812Z,67.91
2023-02-22T09:32:11.202Z,67.63
2023-02-22T09:34:56.840Z,67.35
2023-02-22T09:37:44.304Z,67.89
2023-02-22T09:40:32.086Z,68.06
2023-02-22T09:43:19.974Z,67.64
2023-02-22T09:46:20.531Z,67.86
2023-02-22T09:49:21.257Z,68.56
2023-02-22T09:52:21.416Z,68.88
2023-02-22T09:55:35.679Z,69.07
2023-02-22T09:58:34.925Z,69.48
2023-02-22T10:01:39.305Z,69.16
2023-02-22T10:04:33.946Z,69.42
2023-02-22T10:07:44.387Z,69.74
2023-02-22T10:10:33.143Z,70.46
2023-02-22T10:13:27.238Z,71.53
2023-02-22T10:16:26.449Z,71.48
2023-02-22T10:19:20.347Z,72.19
2023-02-22T10:22:20.615Z,72.23
2023-02-22T10:25:25.620Z,71.76
2023-02-22T10:28:24.071Z,71.87
2023-02-22T10:31:21.170Z,71.38
2023-02-22T10:34:14.890Z,71.46
2023-02-22T10:37:13.414Z,71.83
2023-02-22T10:40:22.648Z,71.88
2023-02-22T10:43:10.451Z,72.18
2023-02-22T10:46:02.837Z,71.61
2023-02-22T10:48:52.665Z,71.14
2023-02-22T10:51:38.758Z,70.42
2023-02-22T10:54:35.739Z,68.25
2023-02-22T10:57:31.723Z,68.16
2023-02-22T11:00:32.516Z,67.60
2023-02-22T11:03:23.009Z,67.57
2023-02-22T11:06:21.154Z,67.26
2023-02-22T11:09:09.631Z,67.27
2023-02-22T11:12:09.853Z,67.70
2023-02-22T11:14:55.688Z,67.75
2023-02-22T11:17:41.723Z,67.23
2023-02-22T11:20:33.743Z,66.96
2023-02-22T11:23:22.795Z,66.51
2023-02-22T11:26:15.054Z,66.06
2023-02-22T11:29:10.703Z,65.79
2023-02-22T11:31:56.088Z,65.89
2023-02-22T11:34:44.602Z,65.45
2023-02-22T11:37:34.068Z,64.47
2023-02-22T11:40:22.298Z,64.25
2023-02-22T11:43:18.888Z,63.44
2023-02-22T11:46:26.470Z,63.08
2023-02-22T11:49:16.549Z,62.78
2023-02-22T11:52:07.532Z,62.25
2023-02-22T11:55:05.935Z,61.66
2023-02-22T11:58:47.660Z,60.85
2023-02-22T12:01:59.313Z,60.47
2023-02-22T12:04:59.614Z,60.41
2023-02-22T12:07:47.962Z,59.55
2023-02-22T12:10:43.061Z,58.95
2023-02-22T12:13:54.206Z,58.61
2023-02-22T12:17:01.871Z,58.56
2023-02-22T12:19:58.111Z,58.87
2023-02-22T12:23:12.082Z,58.78
2023-02-22T12:26:11.816Z,58.41
2023-02-22T12:29:12.215Z,57.00
2023-02-22T12:32:06.505Z,58.25
2023-02-22T12:34:56.912Z,57.82
2023-02-22T12:37:45.041Z,57.58
2023-02-22T12:40:53.202Z,56.58
2023-02-22T12:43:41.059Z,53.51
2023-02-22T12:46:36.519Z,53.93
2023-02-22T12:49:39.287Z,53.54
2023-02-22T12:52:36.826Z,53.99
2023-02-22T12:55:32.726Z,54.54
2023-02-22T12:58:39.043Z,54.77
2023-02-22T13:01:30.236Z,54.90
2023-02-22T13:04:20.851Z,55.19
2023-02-22T13:07:31.231Z,55.20
2023-02-22T13:10:25.824Z,55.05
2023-02-22T13:13:31.322Z,55.04
2023-02-22T13:16:45.317Z,54.82
2023-02-22T13:19:37.079Z,55.47
2023-02-22T13:22:49.364Z,55.67
2023-02-22T13:26:13.077Z,56.07
2023-02-22T13:29:08.071Z,56.01
2023-02-22T13:32:09.131Z,56.54
2023-02-22T13:35:17.593Z,56.59
2023-02-22T13:38:44.833Z,57.21
2023-02-22T13:41:54.616Z,57.77
2023-02-22T13:45:17.102Z,58.03
2023-02-22T13:48:27.490Z,58.37
2023-02-22T13:51:23.131Z,58.34
2023-02-22T13:54:17.592Z,58.12
2023-02-22T13:57:16.848Z,58.04
2023-02-22T14:00:23.136Z,58.43
2023-02-22T14:03:14.182Z,58.69
2023-02-22T14:06:00.850Z,59.06
2023-02-22T14:08:46.295Z,59.11
2023-02-22T14:11:31.554Z,58.44
2023-02-22T14:14:18.492Z,59.05
2023-02-22T14:17:22.122Z,59.17
2023-02-22T14:20:19.045Z,58.79
2023-02-22T14:23:27.426Z,58.81
2023-02-22T14:26:12.522Z,59.19
2023-02-22T14:29:07.269Z,58.88
2023-02-22T14:32:01.816Z,58.84
2023-02-22T14:34:57.375Z,58.66
2023-02-22T14:37:48.550Z,59.14
2023-02-22T14:40:37.112Z,59.37
2023-02-22T14:43:24.852Z,59.85
2023-02-22T14:46:18.048Z,59.65
2023-02-22T14:49:09.410Z,59.77
2023-02-22T14:52:03.213Z,59.61
2023-02-22T14:55:12.834Z,59.70
2023-02-22T14:58:00.991Z,60.10
2023-02-22T15:00:56.323Z,60.01
2023-02-22T15:03:42.642Z,60.36
2023-02-22T15:06:30.743Z,60.66
2023-02-22T15:09:28.933Z,59.94
2023-02-22T15:12:30.137Z,60.14
2023-02-22T15:15:22.026Z,60.52
2023-02-22T15:18:17.952Z,60.20
2023-02-22T15:21:25.316Z,60.59
2023-02-22T15:24:22.262Z,61.13
2023-02-22T15:27:15.145Z,61.25
2023-02-22T15:30:05.168Z,61.20
2023-02-22T15:33:03.579Z,61.78
2023-02-22T15:35:57.111Z,61.95
2023-02-22T15:38:51.458Z,62.12
2023-02-22T15:41:36.476Z,61.95
2023-02-22T15:44:23.914Z,62.11
2023-02-22T15:47:15.957Z,62.03
2023-02-22T15:50:25.202Z,62.05
2023-02-22T15:53:20.040Z,62.07
2023-02-22T15:56:37.503Z,61.62
2023-02-22T15:59:29.664Z,61.60
2023-02-22T16:02:29.227Z,61.60
2023-02-22T16:05:17.743Z,61.35
2023-02-22T16:08:08.399Z,61.39
2023-02-22T16:11:12.859Z,61.40
2023-02-22T16:14:23.003Z,61.75
2023-02-22T16:17:30.001Z,61.76
2023-02-22T16:20:17.962Z,62.28
2023-02-22T16:23:22.663Z,61.90
2023-02-22T16:26:21.606Z,62.10
2023-02-22T16:29:08.417Z,61.69
2023-02-22T16:31:53.889Z,61.20
2023-02-22T16:34:39.422Z,61.58
2023-02-22T16:37:27.886Z,61.44
2023-02-22T16:40:22.872Z,61.61
2023-02-22T16:43:15.750Z,61.90
2023-02-22T16:46:02.016Z,62.03
2023-02-22T16:48:48.237Z,62.26
2023-02-22T16:51:40.766Z,62.59
2023-02-22T16:54:29.071Z,62.54
2023-02-22T16:57:19.114Z,62.69
2023-02-22T17:00:12.494Z,62.43
2023-02-22T17:03:05.370Z,61.85
2023-02-22T17:05:50.847Z,61.47
2023-02-22T17:08:38.076Z,61.28
2023-02-22T17:11:23.607Z,61.93
2023-02-22T17:14:11.939Z,61.93
2023-02-22T17:16:58.067Z,61.38
2023-02-22T17:19:43.539Z,61.92
2023-02-22T17:22:28.565Z,61.12
2023-02-22T17:25:21.178Z,61.35
2023-02-22T17:28:07.348Z,61.77
2023-02-22T17:30:54.604Z,62.28
2023-02-22T17:33:40.015Z,62.04
2023-02-22T17:36:27.407Z,62.43
2023-02-22T17:39:12.808Z,62.94
2023-02-22T17:41:59.018Z,63.16
2023-02-22T17:44:44.600Z,63.00
2023-02-22T17:47:30.057Z,62.66
2023-02-22T17:50:16.037Z,63.31
2023-02-22T17:53:02.507Z,64.95
2023-02-22T17:55:48.267Z,65.02
2023-02-22T17:59:23.347Z,63.38
2023-02-22T18:02:09.862Z,63.38
2023-02-22T18:04:55.408Z,63.24
2023-02-22T18:07:40.383Z,62.74
2023-02-22T18:10:25.882Z,62.65
2023-02-22T18:13:17.112Z,62.59
2023-02-22T18:16:04.932Z,62.98
2023-02-22T18:18:55.226Z,63.18
2023-02-22T18:21:43.450Z,63.47
2023-02-22T18:24:33.672Z,63.41
2023-02-22T18:27:18.987Z,63.42
2023-02-22T18:30:05.251Z,63.35
2023-02-22T18:32:50.451Z,63.34
2023-02-22T18:35:35.421Z,63.45
2023-02-22T18:38:24.875Z,63.74
2023-02-22T18:41:12.676Z,63.56
2023-02-22T18:43:59.723Z,63.29
2023-02-22T18:46:44.769Z,62.87
2023-02-22T18:49:29.808Z,63.14
2023-02-22T18:52:15.338Z,63.11
2023-02-22T18:55:00.721Z,62.72
2023-02-22T18:57:46.981Z,63.09
2023-02-22T19:00:34.450Z,63.03
2023-02-22T19:03:19.605Z,63.14
2023-02-22T19:06:08.054Z,63.27
2023-02-22T19:08:53.390Z,63.51
2023-02-22T19:11:44.068Z,63.10
2023-02-22T19:14:29.079Z,63.33
2023-02-22T19:17:20.197Z,63.38
2023-02-22T19:20:09.935Z,63.48
2023-02-22T19:22:55.244Z,63.62
2023-02-22T19:25:40.713Z,63.34
2023-02-22T19:28:33.281Z,63.49
2023-02-22T19:31:31.525Z,63.69
2023-02-22T19:34:23.227Z,63.77
2023-02-22T19:37:09.287Z,63.28
2023-02-22T19:39:54.555Z,63.19
2023-02-22T19:42:40.298Z,63.19
2023-02-22T19:45:25.530Z,63.30
2023-02-22T19:48:10.908Z,63.11
2023-02-22T19:51:01.758Z,62.56
2023-02-22T19:53:46.976Z,62.48
2023-02-22T19:56:34.548Z,62.64
2023-02-22T19:59:23.032Z,63.32
2023-02-22T20:02:10.408Z,62.39
2023-02-22T20:04:55.508Z,62.70
2023-02-22T20:07:40.670Z,62.36
2023-02-22T20:10:26.550Z,62.62
2023-02-22T20:13:11.637Z,61.09
2023-02-22T20:15:56.628Z,61.41
2023-02-22T20:18:45.848Z,61.70
2023-02-22T20:21:33.425Z,61.35
2023-02-22T20:24:18.591Z,61.88
2023-02-22T20:27:03.732Z,62.14
2023-02-22T20:29:48.839Z,62.24
2023-02-22T20:32:34.809Z,61.90
2023-02-22T20:35:20.574Z,61.77
2023-02-22T20:38:06.112Z,61.85
2023-02-22T20:40:51.447Z,61.83
2023-02-22T20:43:36.667Z,61.10
2023-02-22T20:46:24.098Z,61.41
2023-02-22T20:49:12.857Z,61.44
2023-02-22T20:51:58.508Z,62.03
2023-02-22T20:54:43.884Z,61.87
2023-02-22T20:57:30.086Z,60.37
2023-02-22T21:00:17.461Z,60.50
2023-02-22T21:03:02.630Z,61.08
2023-02-22T21:05:47.707Z,61.51
2023-02-22T21:08:33.071Z,61.68
2023-02-22T21:11:18.216Z,60.87
2023-02-22T21:14:03.726Z,59.88
2023-02-22T21:16:51.350Z,59.82
2023-02-22T21:19:37.675Z,60.17
2023-02-22T21:22:24.431Z,60.27
2023-02-22T21:25:10.192Z,60.19
2023-02-22T21:27:55.559Z,60.50
2023-02-22T21:30:40.660Z,60.79
2023-02-22T21:33:26.049Z,60.69
2023-02-22T21:36:15.072Z,60.82
2023-02-22T21:39:08.260Z,60.68
2023-02-22T21:41:54.913Z,60.62
2023-02-22T21:44:39.894Z,60.33
2023-02-22T21:47:25.348Z,59.80
2023-02-22T21:50:10.936Z,59.72
2023-02-22T21:52:57.351Z,59.61
2023-02-22T21:55:43.596Z,59.73
2023-02-22T21:58:30.114Z,60.11
2023-02-22T22:01:16.608Z,60.28
2023-02-22T22:04:03.320Z,59.72
2023-02-22T22:06:51.006Z,59.05
2023-02-22T22:09:40.468Z,59.29
2023-02-22T22:12:37.466Z,59.03
2023-02-22T22:15:29.509Z,59.34
2023-02-22T22:18:15.093Z,59.62
2023-02-22T22:21:06.879Z,59.12
2023-02-22T22:23:56.560Z,59.56
2023-02-22T22:26:43.428Z,59.77
2023-02-22T22:29:29.700Z,59.86
2023-02-22T22:32:15.517Z,59.54
2023-02-22T22:35:00.767Z,59.30
2023-02-22T22:37:50.429Z,59.17
2023-02-22T22:40:38.194Z,59.69
2023-02-22T22:43:23.658Z,59.08
2023-02-22T22:46:09.571Z,59.45
2023-02-22T22:48:54.848Z,59.61
2023-02-22T22:51:40.624Z,59.80
2023-02-22T22:54:25.823Z,59.45
2023-02-22T22:57:11.530Z,59.51
2023-02-22T22:59:57.382Z,60.27
2023-02-22T23:02:42.478Z,60.10
2023-02-22T23:05:28.563Z,60.11
2023-02-22T23:08:15.446Z,60.38
2023-02-22T23:11:08.401Z,60.17
2023-02-22T23:13:54.019Z,60.05
2023-02-22T23:16:39.576Z,60.29
2023-02-22T23:19:24.726Z,60.36
2023-02-22T23:22:13.218Z,60.97
2023-02-22T23:24:59.297Z,60.24
2023-02-22T23:27:45.751Z,60.23
2023-02-22T23:30:30.950Z,59.62
2023-02-22T23:33:15.954Z,59.75
2023-02-22T23:36:03.779Z,59.91
2023-02-22T23:38:49.368Z,60.09
2023-02-22T23:41:35.870Z,59.83
2023-02-22T23:44:21.546Z,59.98
2023-02-22T23:47:06.501Z,60.15
2023-02-22T23:49:51.513Z,60.34
2023-02-22T23:52:36.734Z,60.68
2023-02-22T23:55:24.497Z,60.59
2023-02-22T23:58:09.819Z,60.58
